createdAt,value
2018-09-10T00:00:16.101Z,1.10
2018-09-10T00:02:44.622Z,1.12
2018-09-10T00:05:13.274Z,1.30
2018-09-10T00:07:43.146Z,0.93
2018-09-10T00:10:13.566Z,0.90
2018-09-10T00:12:42.140Z,1.25
2018-09-10T00:15:10.630Z,1.27
2018-09-10T00:17:39.437Z,1.00
2018-09-10T00:20:08.180Z,0.95
2018-09-10T00:22:36.657Z,1.00
2018-09-10T00:25:05.624Z,1.10
2018-09-10T00:27:34.086Z,1.22
2018-09-10T00:30:02.609Z,1.25
2018-09-10T00:32:31.078Z,1.62
2018-09-10T00:34:59.492Z,1.10
2018-09-10T00:37:28.031Z,1.00
2018-09-10T00:39:56.782Z,1.40
2018-09-10T00:42:26.816Z,1.20
2018-09-10T00:44:55.892Z,1.30
2018-09-10T00:47:24.466Z,1.05
2018-09-10T00:49:53.062Z,1.12
2018-09-10T00:52:21.671Z,1.02
2018-09-10T00:54:50.069Z,0.90
2018-09-10T00:57:18.815Z,1.10
2018-09-10T00:59:47.315Z,1.15
2018-09-10T01:02:15.731Z,1.35
2018-09-10T01:04:44.140Z,1.27
2018-09-10T01:07:12.909Z,1.30
2018-09-10T01:09:41.619Z,1.17
2018-09-10T01:12:10.143Z,1.22
2018-09-10T01:14:38.651Z,1.35
2018-09-10T01:17:07.133Z,1.07
2018-09-10T01:19:36.059Z,1.20
2018-09-10T01:22:04.681Z,1.42
2018-09-10T01:24:33.245Z,1.25
2018-09-10T01:27:04.747Z,1.20
2018-09-10T01:29:33.489Z,1.10
2018-09-10T01:32:02.065Z,1.25
2018-09-10T01:34:35.836Z,1.20
2018-09-10T01:39:41.743Z,0.93
2018-09-10T01:42:10.341Z,1.10
2018-09-10T01:44:38.964Z,1.20
2018-09-10T01:47:07.735Z,1.25
2018-09-10T01:49:36.769Z,1.07
2018-09-10T01:52:05.450Z,1.10
2018-09-10T01:54:33.946Z,1.20
2018-09-10T01:57:02.394Z,1.12
2018-09-10T01:59:31.034Z,1.30
2018-09-10T02:01:59.478Z,1.10
2018-09-10T02:04:28.121Z,0.98
2018-09-10T02:06:56.716Z,1.40
2018-09-10T02:09:25.335Z,1.30
2018-09-10T02:11:53.921Z,1.12
2018-09-10T02:14:22.453Z,1.25
2018-09-10T02:16:51.110Z,1.20
2018-09-10T02:19:19.703Z,1.25
2018-09-10T02:21:48.141Z,1.27
2018-09-10T02:24:16.686Z,1.10
2018-09-10T02:26:45.428Z,1.00
2018-09-10T02:29:17.072Z,1.02
2018-09-10T02:31:45.610Z,1.10
2018-09-10T02:34:14.116Z,1.20
2018-09-10T02:36:42.745Z,1.20
2018-09-10T02:39:11.441Z,1.10
2018-09-10T02:41:42.890Z,1.15
2018-09-10T02:44:12.748Z,1.15
2018-09-10T02:46:41.158Z,1.22
2018-09-10T02:49:09.726Z,1.15
2018-09-10T02:51:38.224Z,1.10
2018-09-10T02:54:06.706Z,1.12
2018-09-10T02:56:35.174Z,1.10
2018-09-10T02:59:03.885Z,0.90
2018-09-10T03:01:32.458Z,1.00
2018-09-10T03:04:01.018Z,1.10
2018-09-10T03:06:29.634Z,1.17
2018-09-10T03:08:58.263Z,1.20
2018-09-10T03:11:26.970Z,1.30
2018-09-10T03:13:55.556Z,1.10
2018-09-10T03:16:24.301Z,1.15
2018-09-10T03:18:52.972Z,1.20
2018-09-10T03:21:21.624Z,1.50
2018-09-10T03:23:50.267Z,1.30
2018-09-10T03:26:18.862Z,1.22
2018-09-10T03:28:48.345Z,1.30
2018-09-10T03:31:17.171Z,1.20
2018-09-10T03:33:46.433Z,1.17
2018-09-10T03:36:14.881Z,1.22
2018-09-10T03:38:43.461Z,1.50
2018-09-10T03:41:12.120Z,1.10
2018-09-10T03:43:41.049Z,1.07
2018-09-10T03:46:09.769Z,1.00
2018-09-10T03:48:38.697Z,1.20
2018-09-10T03:51:09.491Z,1.20
2018-09-10T03:53:40.961Z,1.20
2018-09-10T03:56:09.617Z,1.32
2018-09-10T03:58:39.534Z,0.85
2018-09-10T04:01:08.337Z,1.30
2018-09-10T04:03:37.056Z,1.37
2018-09-10T04:06:05.882Z,1.17
2018-09-10T04:08:34.429Z,1.15
2018-09-10T04:11:03.029Z,1.20
2018-09-10T04:13:31.768Z,1.17
2018-09-10T04:16:00.626Z,1.37
2018-09-10T04:18:29.850Z,1.35
2018-09-10T04:21:00.584Z,1.10
2018-09-10T04:23:29.470Z,1.40
2018-09-10T04:26:00.202Z,1.22
2018-09-10T04:28:29.096Z,1.27
2018-09-10T04:30:57.906Z,1.15
2018-09-10T04:33:26.921Z,1.20
2018-09-10T04:35:55.606Z,1.15
2018-09-10T04:38:24.509Z,1.35
2018-09-10T04:40:53.023Z,1.10
2018-09-10T04:43:21.494Z,1.30
2018-09-10T04:45:50.105Z,1.15
2018-09-10T04:48:18.489Z,1.12
2018-09-10T04:50:46.931Z,1.25
2018-09-10T04:53:15.418Z,1.30
2018-09-10T04:55:43.910Z,1.47
2018-09-10T04:58:12.349Z,1.37
2018-09-10T05:00:40.707Z,1.75
2018-09-10T05:03:09.177Z,1.82
2018-09-10T05:05:37.576Z,1.60
2018-09-10T05:08:06.007Z,1.65
2018-09-10T05:10:34.552Z,1.60
2018-09-10T05:13:02.889Z,1.80
2018-09-10T05:15:31.383Z,1.80
2018-09-10T05:17:59.738Z,1.90
2018-09-10T05:20:28.077Z,1.80
2018-09-10T05:22:56.448Z,1.57
2018-09-10T05:25:24.813Z,1.50
2018-09-10T05:27:53.292Z,1.77
2018-09-10T05:30:21.644Z,1.90
2018-09-10T05:32:50.062Z,1.80
2018-09-10T05:35:18.804Z,2.08
2018-09-10T05:37:47.111Z,1.85
2018-09-10T05:40:15.500Z,1.98
2018-09-10T05:42:44.809Z,1.75
2018-09-10T05:45:13.707Z,1.85
2018-09-10T05:47:42.490Z,2.02
2018-09-10T05:50:11.697Z,2.65
2018-09-10T05:52:40.299Z,2.02
2018-09-10T05:55:08.750Z,2.02
2018-09-10T05:57:37.369Z,1.95
2018-09-10T06:00:07.573Z,2.35
2018-09-10T06:02:36.134Z,2.33
2018-09-10T06:05:04.654Z,2.20
2018-09-10T06:07:33.011Z,1.98
2018-09-10T06:10:01.319Z,2.15
2018-09-10T06:12:29.768Z,2.00
2018-09-10T06:14:58.179Z,2.15
2018-09-10T06:17:26.628Z,2.17
2018-09-10T06:19:55.260Z,2.10
2018-09-10T06:22:23.703Z,1.98
2018-09-10T06:24:52.045Z,2.05
2018-09-10T06:27:20.770Z,2.10
2018-09-10T06:29:49.147Z,2.77
2018-09-10T06:32:17.609Z,2.40
2018-09-10T06:34:45.917Z,2.47
2018-09-10T06:37:14.377Z,2.33
2018-09-10T06:39:42.695Z,2.50
2018-09-10T06:42:11.168Z,2.35
2018-09-10T06:44:39.561Z,2.60
2018-09-10T06:47:08.088Z,2.60
2018-09-10T06:49:36.416Z,2.50
2018-09-10T06:52:04.787Z,2.37
2018-09-10T06:54:33.127Z,2.57
2018-09-10T06:57:01.457Z,2.50
2018-09-10T06:59:29.953Z,2.40
2018-09-10T07:01:58.349Z,2.30
2018-09-10T07:04:26.776Z,2.40
2018-09-10T07:06:55.280Z,2.37
2018-09-10T07:09:23.675Z,2.92
2018-09-10T07:11:51.988Z,2.52
2018-09-10T07:14:20.333Z,2.90
2018-09-10T07:16:48.762Z,2.27
2018-09-10T07:19:17.131Z,2.60
2018-09-10T07:21:45.466Z,2.70
2018-09-10T07:24:13.790Z,2.72
2018-09-10T07:26:42.096Z,2.27
2018-09-10T07:29:10.801Z,2.55
2018-09-10T07:31:39.118Z,2.72
2018-09-10T07:34:07.486Z,2.00
2018-09-10T07:36:35.907Z,2.50
2018-09-10T07:39:06.047Z,2.45
2018-09-10T07:41:34.640Z,2.65
2018-09-10T07:44:03.589Z,2.50
2018-09-10T07:46:31.858Z,2.27
2018-09-10T07:49:00.253Z,2.55
2018-09-10T07:51:28.549Z,2.22
2018-09-10T07:53:57.030Z,2.50
2018-09-10T07:56:25.837Z,2.58
2018-09-10T07:58:54.607Z,2.62
2018-09-10T08:01:23.415Z,2.52
2018-09-10T08:03:52.183Z,2.58
2018-09-10T08:06:20.686Z,2.40
2018-09-10T08:08:49.066Z,2.47
2018-09-10T08:11:17.501Z,2.37
2018-09-10T08:13:46.000Z,2.05
2018-09-10T08:16:14.373Z,2.33
2018-09-10T08:18:42.805Z,2.30
2018-09-10T08:21:11.265Z,2.37
2018-09-10T08:23:39.635Z,2.52
2018-09-10T08:26:08.055Z,2.60
2018-09-10T08:28:36.552Z,2.50
2018-09-10T08:31:04.966Z,2.60
2018-09-10T08:33:33.406Z,2.15
2018-09-10T08:36:01.789Z,2.30
2018-09-10T08:38:30.250Z,2.60
2018-09-10T08:40:58.694Z,2.40
2018-09-10T08:43:27.023Z,2.30
2018-09-10T08:45:55.368Z,2.35
2018-09-10T08:48:23.775Z,2.10
2018-09-10T08:50:52.089Z,2.20
2018-09-10T08:53:20.960Z,2.20
2018-09-10T08:55:49.735Z,2.35
2018-09-10T08:58:17.977Z,2.50
2018-09-10T09:00:47.470Z,2.30
2018-09-10T09:03:15.887Z,2.05
2018-09-10T09:05:44.245Z,2.40
2018-09-10T09:08:12.581Z,2.02
2018-09-10T09:10:41.002Z,2.40
2018-09-10T09:13:09.306Z,2.20
2018-09-10T09:15:37.644Z,2.62
2018-09-10T09:18:06.042Z,2.10
2018-09-10T09:20:34.560Z,2.30
2018-09-10T09:23:02.972Z,2.40
2018-09-10T09:25:31.298Z,2.08
2018-09-10T09:27:59.616Z,2.37
2018-09-10T09:30:28.140Z,2.10
2018-09-10T09:32:56.602Z,2.47
2018-09-10T09:35:30.585Z,2.30
2018-09-10T09:38:04.334Z,2.33
2018-09-10T09:40:38.186Z,2.30
2018-09-10T09:43:11.940Z,2.10
2018-09-10T09:45:45.742Z,2.25
2018-09-10T09:48:14.092Z,2.00
2018-09-10T09:50:42.439Z,2.25
2018-09-10T09:53:10.805Z,2.20
2018-09-10T09:55:39.159Z,2.15
2018-09-10T09:58:07.561Z,2.15
2018-09-10T10:00:41.415Z,2.00
2018-09-10T10:03:14.947Z,2.40
2018-09-10T10:05:43.777Z,2.22
2018-09-10T10:08:12.140Z,2.15
2018-09-10T10:10:40.481Z,2.50
2018-09-10T10:13:08.797Z,2.60
2018-09-10T10:15:37.157Z,2.40
2018-09-10T10:18:05.529Z,2.22
2018-09-10T10:20:34.139Z,2.50
2018-09-10T10:23:02.590Z,2.37
2018-09-10T10:25:31.076Z,2.20
2018-09-10T10:27:59.645Z,2.20
2018-09-10T10:30:27.990Z,2.85
2018-09-10T10:32:56.323Z,2.45
2018-09-10T10:35:24.686Z,2.47
2018-09-10T10:37:53.134Z,2.70
2018-09-10T10:40:21.577Z,2.33
2018-09-10T10:42:49.977Z,2.72
2018-09-10T10:45:18.335Z,2.47
2018-09-10T10:47:46.682Z,2.80
2018-09-10T10:50:15.055Z,2.58
2018-09-10T10:52:43.383Z,2.50
2018-09-10T10:55:11.875Z,2.50
2018-09-10T10:57:40.417Z,2.65
2018-09-10T11:00:08.861Z,2.40
2018-09-10T11:02:37.243Z,2.50
2018-09-10T11:05:06.402Z,2.50
2018-09-10T11:07:34.815Z,2.60
2018-09-10T11:10:03.175Z,2.55
2018-09-10T11:12:31.535Z,2.50
2018-09-10T11:14:59.848Z,3.17
2018-09-10T11:17:28.307Z,2.85
2018-09-10T11:19:56.633Z,2.65
2018-09-10T11:22:25.240Z,2.45
2018-09-10T11:24:53.587Z,2.62
2018-09-10T11:27:21.934Z,2.33
2018-09-10T11:29:50.425Z,2.37
2018-09-10T11:32:18.852Z,2.35
2018-09-10T11:34:47.187Z,2.58
2018-09-10T11:37:15.567Z,2.58
2018-09-10T11:39:43.916Z,2.15
2018-09-10T11:42:12.335Z,2.50
2018-09-10T11:44:40.685Z,2.35
2018-09-10T11:47:09.025Z,2.15
2018-09-10T11:49:37.334Z,2.20
2018-09-10T11:52:05.855Z,2.15
2018-09-10T11:54:34.156Z,2.52
2018-09-10T11:57:02.753Z,2.20
2018-09-10T11:59:31.079Z,2.00
2018-09-10T12:01:59.465Z,2.20
2018-09-10T12:04:27.778Z,2.22
2018-09-10T12:06:56.206Z,2.20
2018-09-10T12:09:24.581Z,2.33
2018-09-10T12:11:53.017Z,2.20
2018-09-10T12:14:21.341Z,1.90
2018-09-10T12:16:49.682Z,2.00
2018-09-10T12:19:18.025Z,2.35
2018-09-10T12:21:46.501Z,2.15
2018-09-10T12:24:14.865Z,1.92
2018-09-10T12:26:43.228Z,2.30
2018-09-10T12:29:11.605Z,2.00
2018-09-10T12:31:40.007Z,1.72
2018-09-10T12:34:09.295Z,1.72
2018-09-10T12:36:37.762Z,2.30
2018-09-10T12:39:08.357Z,2.20
2018-09-10T12:41:36.787Z,2.52
2018-09-10T12:44:05.483Z,2.22
2018-09-10T12:46:33.955Z,2.00
2018-09-10T12:49:02.203Z,2.10
2018-09-10T12:51:30.727Z,1.98
2018-09-10T12:53:59.068Z,2.27
2018-09-10T12:56:27.444Z,2.20
2018-09-10T12:58:55.916Z,2.02
2018-09-10T13:01:24.334Z,2.10
2018-09-10T13:03:53.037Z,2.25
2018-09-10T13:06:21.686Z,1.95
2018-09-10T13:08:50.307Z,2.00
2018-09-10T13:11:18.617Z,2.20
2018-09-10T13:13:46.983Z,1.95
2018-09-10T13:16:15.374Z,2.67
2018-09-10T13:18:43.740Z,2.25
2018-09-10T13:21:12.025Z,2.20
2018-09-10T13:23:40.354Z,2.20
2018-09-10T13:26:08.690Z,2.05
2018-09-10T13:28:37.145Z,2.05
2018-09-10T13:31:05.643Z,2.02
2018-09-10T13:33:34.025Z,2.27
2018-09-10T13:36:02.443Z,2.20
2018-09-10T13:38:30.831Z,2.35
2018-09-10T13:40:59.238Z,2.15
2018-09-10T13:43:27.592Z,2.00
2018-09-10T13:45:56.021Z,2.45
2018-09-10T13:48:24.344Z,2.00
2018-09-10T13:50:52.833Z,2.30
2018-09-10T13:53:21.160Z,2.37
2018-09-10T13:55:49.568Z,2.20
2018-09-10T13:58:17.954Z,1.90
2018-09-10T14:00:46.308Z,2.33
2018-09-10T14:03:14.725Z,2.10
2018-09-10T14:05:43.106Z,2.10
2018-09-10T14:08:11.426Z,2.40
2018-09-10T14:10:39.864Z,2.25
2018-09-10T14:13:08.289Z,1.82
2018-09-10T14:15:36.674Z,2.20
2018-09-10T14:18:05.116Z,2.45
2018-09-10T14:20:33.428Z,2.40
2018-09-10T14:23:01.791Z,1.90
2018-09-10T14:25:30.152Z,2.15
2018-09-10T14:27:58.465Z,2.30
2018-09-10T14:30:26.825Z,2.37
2018-09-10T14:32:55.341Z,2.10
2018-09-10T14:35:23.669Z,2.50
2018-09-10T14:37:52.041Z,2.50
2018-09-10T14:40:20.392Z,1.82
2018-09-10T14:42:48.881Z,2.10
2018-09-10T14:45:17.216Z,2.37
2018-09-10T14:47:45.558Z,2.40
2018-09-10T14:50:13.904Z,2.42
2018-09-10T14:52:42.269Z,2.67
2018-09-10T14:55:10.643Z,2.25
2018-09-10T14:57:38.992Z,2.55
2018-09-10T15:00:07.442Z,2.42
2018-09-10T15:02:35.902Z,3.08
2018-09-10T15:05:04.360Z,2.60
2018-09-10T15:07:32.732Z,2.52
2018-09-10T15:10:01.118Z,3.08
2018-09-10T15:12:29.626Z,2.80
2018-09-10T15:14:57.957Z,3.05
2018-09-10T15:17:26.323Z,3.27
2018-09-10T15:19:54.684Z,2.90
2018-09-10T15:22:23.082Z,2.65
2018-09-10T15:24:51.567Z,2.98
2018-09-10T15:27:19.949Z,2.83
2018-09-10T15:29:48.313Z,3.30
2018-09-10T15:32:16.691Z,3.10
2018-09-10T15:34:45.188Z,2.80
2018-09-10T15:37:13.436Z,2.98
2018-09-10T15:39:41.848Z,2.60
2018-09-10T15:42:10.160Z,2.77
2018-09-10T15:44:38.523Z,3.20
2018-09-10T15:47:06.892Z,3.33
2018-09-10T15:49:35.280Z,2.70
2018-09-10T15:52:03.612Z,2.70
2018-09-10T15:54:32.350Z,2.75
2018-09-10T15:57:00.683Z,2.70
2018-09-10T15:59:29.062Z,2.58
2018-09-10T16:01:57.389Z,2.70
2018-09-10T16:04:25.809Z,2.75
2018-09-10T16:06:54.205Z,2.70
2018-09-10T16:09:22.753Z,2.95
2018-09-10T16:11:51.099Z,2.72
2018-09-10T16:14:19.463Z,3.00
2018-09-10T16:16:48.017Z,3.12
2018-09-10T16:19:16.641Z,2.98
2018-09-10T16:21:44.975Z,3.22
2018-09-10T16:24:13.802Z,3.50
2018-09-10T16:26:42.390Z,3.22
2018-09-10T16:29:10.819Z,3.00
2018-09-10T16:31:39.335Z,3.02
2018-09-10T16:34:07.689Z,2.70
2018-09-10T16:36:36.044Z,3.02
2018-09-10T16:39:06.989Z,3.02
2018-09-10T16:41:35.437Z,3.12
2018-09-10T16:44:03.966Z,3.12
2018-09-10T16:46:32.710Z,2.95
2018-09-10T16:49:01.088Z,2.90
2018-09-10T16:51:29.663Z,2.98
2018-09-10T16:53:58.014Z,3.00
2018-09-10T16:56:26.471Z,2.90
2018-09-10T16:58:54.845Z,3.17
2018-09-10T17:01:23.438Z,3.10
2018-09-10T17:03:51.860Z,2.70
2018-09-10T17:06:20.244Z,2.95
2018-09-10T17:08:49.391Z,3.02
2018-09-10T17:11:17.835Z,2.95
2018-09-10T17:13:46.448Z,3.10
2018-09-10T17:16:15.116Z,2.90
2018-09-10T17:18:43.588Z,3.30
2018-09-10T17:21:12.130Z,3.10
2018-09-10T17:23:40.494Z,2.98
2018-09-10T17:26:08.901Z,3.00
2018-09-10T17:28:37.276Z,3.10
2018-09-10T17:31:05.939Z,3.10
2018-09-10T17:33:34.436Z,3.35
2018-09-10T17:36:02.847Z,3.00
2018-09-10T17:38:31.713Z,3.15
2018-09-10T17:41:00.321Z,2.98
2018-09-10T17:43:28.749Z,3.00
2018-09-10T17:45:57.254Z,2.80
2018-09-10T17:48:25.673Z,2.95
2018-09-10T17:50:54.056Z,3.35
2018-09-10T17:53:22.543Z,3.30
2018-09-10T17:55:50.974Z,3.30
2018-09-10T17:58:19.759Z,3.55
2018-09-10T18:00:49.402Z,3.30
2018-09-10T18:03:17.821Z,3.50
2018-09-10T18:05:46.426Z,3.27
2018-09-10T18:08:15.474Z,3.30
2018-09-10T18:10:44.052Z,3.33
2018-09-10T18:13:16.123Z,3.22
2018-09-10T18:15:44.520Z,3.15
2018-09-10T18:18:13.104Z,3.22
2018-09-10T18:20:41.526Z,3.20
2018-09-10T18:23:10.093Z,2.90
2018-09-10T18:25:39.103Z,3.30
2018-09-10T18:28:08.138Z,3.27
2018-09-10T18:30:38.806Z,2.75
2018-09-10T18:33:07.353Z,3.50
2018-09-10T18:35:35.728Z,3.35
2018-09-10T18:38:04.149Z,5.85
2018-09-10T18:40:32.592Z,5.25
2018-09-10T18:43:01.579Z,4.50
2018-09-10T18:45:30.053Z,4.78
2018-09-10T18:47:58.779Z,4.20
2018-09-10T18:50:32.868Z,4.37
2018-09-10T18:53:02.301Z,3.90
2018-09-10T18:55:32.314Z,3.50
2018-09-10T18:58:01.703Z,3.30
2018-09-10T19:00:41.312Z,3.50
2018-09-10T19:03:09.929Z,3.40
2018-09-10T19:05:38.729Z,3.40
2018-09-10T19:08:08.972Z,3.42
2018-09-10T19:10:38.053Z,3.25
2018-09-10T19:13:10.761Z,3.33
2018-09-10T19:15:39.990Z,3.42
2018-09-10T19:18:38.128Z,3.20
2018-09-10T19:21:08.894Z,2.90
2018-09-10T19:23:38.952Z,2.98
2018-09-10T19:26:08.178Z,3.30
2018-09-10T19:28:36.950Z,2.67
2018-09-10T19:31:05.712Z,2.80
2018-09-10T19:33:34.604Z,2.90
2018-09-10T19:38:43.412Z,2.80
2018-09-10T19:41:31.710Z,2.83
2018-09-10T19:44:00.522Z,2.72
2018-09-10T19:46:32.454Z,2.95
2018-09-10T19:49:13.046Z,2.62
2018-09-10T19:51:42.544Z,2.72
2018-09-10T19:54:13.941Z,2.72
2018-09-10T19:56:47.500Z,2.62
2018-09-10T19:59:16.438Z,2.85
2018-09-10T20:01:45.852Z,2.52
2018-09-10T20:04:15.233Z,2.80
2018-09-10T20:06:44.689Z,2.67
2018-09-10T20:11:59.151Z,2.65
2018-09-10T20:14:35.045Z,2.80
2018-09-10T20:17:03.807Z,2.98
2018-09-10T20:19:33.301Z,2.98
2018-09-10T20:22:02.176Z,3.10
2018-09-10T20:24:30.796Z,3.08
2018-09-10T20:26:59.469Z,2.90
2018-09-10T20:29:28.319Z,2.87
2018-09-10T20:31:56.937Z,2.75
2018-09-10T20:37:00.124Z,3.10
2018-09-10T20:39:28.668Z,3.25
2018-09-10T20:41:57.541Z,2.75
2018-09-10T20:44:28.072Z,2.72
2018-09-10T20:46:57.282Z,2.95
2018-09-10T20:49:27.474Z,2.62
2018-09-10T20:52:00.992Z,2.90
2018-09-10T20:54:29.435Z,2.85
2018-09-10T20:57:03.246Z,3.25
2018-09-10T20:59:49.356Z,2.52
2018-09-10T21:02:18.466Z,2.80
2018-09-10T21:04:52.950Z,3.22
2018-09-10T21:07:36.357Z,2.65
2018-09-10T21:10:11.913Z,2.50
2018-09-10T21:12:40.984Z,2.60
2018-09-10T21:15:09.855Z,2.62
2018-09-10T21:17:38.882Z,2.60
2018-09-10T21:20:07.538Z,2.77
2018-09-10T21:22:36.424Z,2.55
2018-09-10T21:25:06.452Z,2.40
2018-09-10T21:27:35.218Z,2.50
2018-09-10T21:32:48.788Z,2.60
2018-09-10T21:35:18.437Z,2.70
2018-09-10T21:37:47.386Z,2.50
2018-09-10T21:40:19.433Z,2.50
2018-09-10T21:42:51.153Z,2.70
2018-09-10T21:45:27.072Z,2.60
2018-09-10T21:47:56.459Z,2.37
2018-09-10T21:55:45.353Z,2.30
2018-09-10T21:58:14.314Z,2.50
2018-09-10T22:00:52.190Z,2.33
2018-09-10T22:03:32.128Z,2.60
2018-09-10T22:06:01.085Z,2.35
2018-09-10T22:08:29.971Z,2.20
2018-09-10T22:10:59.218Z,2.10
2018-09-10T22:13:28.007Z,2.22
2018-09-10T22:15:56.817Z,2.20
2018-09-10T22:18:31.082Z,2.52
2018-09-10T22:21:00.226Z,2.20
2018-09-10T22:23:29.279Z,2.10
2018-09-10T22:25:58.246Z,2.12
2018-09-10T22:28:27.659Z,2.58
2018-09-10T22:30:56.550Z,2.40
2018-09-10T22:33:25.516Z,2.62
2018-09-10T22:35:54.083Z,2.52
2018-09-10T22:38:22.649Z,2.22
2018-09-10T22:40:53.468Z,2.12
2018-09-10T22:43:22.170Z,2.08
2018-09-10T22:45:50.721Z,2.25
2018-09-10T22:48:19.297Z,2.37
2018-09-10T22:50:47.793Z,2.50
2018-09-10T22:53:16.395Z,2.42
2018-09-10T22:55:46.437Z,2.20
2018-09-10T22:58:15.197Z,2.20
2018-09-10T23:00:44.149Z,2.37
2018-09-10T23:03:28.914Z,2.02
2018-09-10T23:05:59.342Z,2.33
2018-09-10T23:08:44.408Z,2.30
2018-09-10T23:11:49.953Z,2.33
2018-09-10T23:14:18.387Z,2.30
2018-09-10T23:16:47.201Z,2.33
2018-09-10T23:19:22.007Z,2.37
2018-09-10T23:21:59.419Z,2.20
2018-09-10T23:24:28.266Z,2.27
2018-09-10T23:26:57.246Z,2.08
2018-09-10T23:29:27.090Z,2.25
2018-09-10T23:31:56.948Z,2.20
2018-09-10T23:34:26.167Z,2.30
2018-09-10T23:36:56.568Z,2.00
2018-09-10T23:39:32.825Z,2.10
2018-09-10T23:42:03.397Z,2.12
2018-09-10T23:44:33.292Z,1.87
2018-09-10T23:47:03.532Z,2.33
2018-09-10T23:49:34.618Z,2.17
2018-09-10T23:52:18.224Z,2.30
2018-09-10T23:54:47.138Z,2.40
2018-09-10T23:57:16.596Z,2.25
2018-09-10T23:59:45.388Z,2.25
